createdAt,value
2023-01-31T00:00:08.038Z,0.17
2023-01-31T00:02:36.774Z,0.20
2023-01-31T00:05:05.332Z,0.30
2023-01-31T00:07:33.995Z,0.13
2023-01-31T00:10:02.698Z,0.20
2023-01-31T00:12:31.187Z,0.20
2023-01-31T00:15:00.309Z,0.20
2023-01-31T00:17:30.432Z,0.10
2023-01-31T00:19:58.899Z,0.10
2023-01-31T00:22:27.602Z,0.10
2023-01-31T00:24:56.065Z,0.20
2023-01-31T00:27:24.553Z,0.20
2023-01-31T00:29:53.248Z,0.10
2023-01-31T00:32:21.760Z,0.10
2023-01-31T00:34:51.654Z,0.20
2023-01-31T00:37:20.287Z,0.20
2023-01-31T00:39:48.805Z,0.30
2023-01-31T00:42:17.278Z,0.20
2023-01-31T00:44:46.146Z,0.10
2023-01-31T00:47:14.675Z,0.30
2023-01-31T00:49:43.148Z,0.13
2023-01-31T00:52:13.400Z,0.30
2023-01-31T00:54:42.994Z,0.10
2023-01-31T00:57:11.476Z,0.20
2023-01-31T00:59:40.311Z,0.10
2023-01-31T01:02:08.840Z,0.10
2023-01-31T01:04:37.406Z,0.10
2023-01-31T01:07:06.083Z,0.10
2023-01-31T01:09:36.337Z,0.00
2023-01-31T01:12:04.827Z,0.10
2023-01-31T01:14:33.515Z,0.27
2023-01-31T01:17:01.979Z,0.20
2023-01-31T01:19:30.462Z,0.30
2023-01-31T01:21:59.242Z,0.10
2023-01-31T01:24:29.086Z,0.30
2023-01-31T01:26:59.430Z,0.10
2023-01-31T01:29:28.145Z,0.10
2023-01-31T01:31:56.699Z,0.10
2023-01-31T01:34:25.211Z,0.17
2023-01-31T01:36:53.821Z,0.30
2023-01-31T01:39:22.320Z,0.10
2023-01-31T01:41:51.705Z,0.20
2023-01-31T01:44:39.082Z,0.30
2023-01-31T01:47:13.559Z,0.20
2023-01-31T01:49:42.217Z,0.30
2023-01-31T01:52:12.437Z,0.23
2023-01-31T01:54:43.039Z,0.20
2023-01-31T01:57:15.564Z,0.20
2023-01-31T01:59:45.493Z,0.20
2023-01-31T02:02:16.146Z,0.20
2023-01-31T02:04:45.351Z,0.10
2023-01-31T02:07:14.183Z,0.20
2023-01-31T02:09:47.694Z,0.20
2023-01-31T02:12:16.186Z,0.10
2023-01-31T02:14:45.192Z,0.30
2023-01-31T02:17:15.922Z,0.27
2023-01-31T02:19:51.035Z,0.10
2023-01-31T02:22:23.975Z,0.20
2023-01-31T02:25:16.437Z,0.30
2023-01-31T02:28:00.950Z,0.20
2023-01-31T02:30:44.286Z,0.10
2023-01-31T02:33:18.085Z,0.20
2023-01-31T02:35:55.214Z,0.10
2023-01-31T02:38:31.727Z,0.10
2023-01-31T02:41:03.996Z,0.20
2023-01-31T02:43:59.454Z,0.20
2023-01-31T02:46:34.042Z,0.20
2023-01-31T02:49:08.470Z,0.10
2023-01-31T02:51:41.370Z,0.10
2023-01-31T02:54:11.902Z,0.00
2023-01-31T02:56:42.319Z,0.20
2023-01-31T02:59:13.371Z,0.10
2023-01-31T03:01:43.495Z,0.10
2023-01-31T03:04:14.912Z,0.20
2023-01-31T03:06:59.977Z,0.10
2023-01-31T03:09:36.805Z,0.20
2023-01-31T03:12:10.361Z,0.20
2023-01-31T03:14:44.651Z,0.10
2023-01-31T03:17:33.121Z,0.10
2023-01-31T03:20:05.796Z,0.17
2023-01-31T03:22:36.423Z,0.10
2023-01-31T03:25:06.513Z,0.20
2023-01-31T03:27:35.000Z,0.20
2023-01-31T03:30:06.413Z,0.30
2023-01-31T03:32:37.119Z,0.40
2023-01-31T03:35:07.829Z,0.37
2023-01-31T03:37:39.531Z,0.23
2023-01-31T03:40:11.286Z,0.20
2023-01-31T03:42:44.091Z,0.10
2023-01-31T03:45:14.724Z,0.20
2023-01-31T03:47:44.271Z,0.40
2023-01-31T03:50:16.457Z,0.23
2023-01-31T03:52:46.740Z,0.20
2023-01-31T03:55:18.655Z,0.10
2023-01-31T03:57:48.381Z,0.17
2023-01-31T04:00:18.379Z,0.30
2023-01-31T04:02:48.898Z,0.27
2023-01-31T04:05:21.170Z,0.23
2023-01-31T04:07:49.841Z,0.23
2023-01-31T04:10:19.742Z,0.30
2023-01-31T04:12:48.820Z,0.20
2023-01-31T04:15:17.534Z,0.20
2023-01-31T04:17:46.387Z,0.40
2023-01-31T04:20:15.155Z,0.47
2023-01-31T04:22:45.010Z,0.20
2023-01-31T04:25:13.470Z,0.17
2023-01-31T04:27:42.259Z,0.20
2023-01-31T04:30:11.248Z,0.33
2023-01-31T04:32:39.751Z,0.30
2023-01-31T04:35:09.041Z,0.30
2023-01-31T04:37:37.523Z,0.20
2023-01-31T04:40:08.675Z,0.23
2023-01-31T04:42:37.402Z,0.20
2023-01-31T04:45:06.282Z,0.20
2023-01-31T04:47:34.766Z,0.10
2023-01-31T04:50:03.539Z,0.27
2023-01-31T04:52:32.086Z,0.30
2023-01-31T04:55:00.617Z,0.30
2023-01-31T04:57:30.742Z,0.33
2023-01-31T04:59:59.209Z,0.20
2023-01-31T05:02:27.807Z,0.20
2023-01-31T05:04:56.486Z,0.23
2023-01-31T05:07:25.026Z,0.33
2023-01-31T05:09:54.046Z,0.40
2023-01-31T05:12:22.629Z,0.30
2023-01-31T05:14:52.669Z,2.00
2023-01-31T05:17:26.319Z,3.23
2023-01-31T05:19:54.975Z,0.40
2023-01-31T05:22:23.627Z,0.30
2023-01-31T05:24:52.100Z,0.80
2023-01-31T05:27:21.112Z,1.57
2023-01-31T05:29:50.145Z,2.37
2023-01-31T05:32:20.177Z,1.97
2023-01-31T05:34:48.767Z,0.90
2023-01-31T05:37:17.299Z,1.60
2023-01-31T05:39:45.783Z,1.43
2023-01-31T05:42:14.450Z,0.80
2023-01-31T05:44:43.120Z,0.87
2023-01-31T05:47:11.599Z,0.60
2023-01-31T05:49:41.553Z,0.90
2023-01-31T05:52:10.217Z,0.60
2023-01-31T05:54:38.763Z,0.60
2023-01-31T05:57:07.610Z,0.50
2023-01-31T05:59:36.134Z,0.60
2023-01-31T06:02:04.747Z,0.77
2023-01-31T06:04:34.431Z,0.87
2023-01-31T06:07:04.442Z,0.50
2023-01-31T06:09:33.287Z,0.20
2023-01-31T06:12:01.780Z,0.47
2023-01-31T06:14:30.851Z,0.40
2023-01-31T06:16:59.526Z,0.20
2023-01-31T06:19:27.990Z,0.33
2023-01-31T06:21:56.573Z,0.50
2023-01-31T06:24:26.539Z,0.30
2023-01-31T06:26:55.111Z,0.40
2023-01-31T06:29:23.706Z,0.27
2023-01-31T06:31:53.689Z,0.40
2023-01-31T06:34:22.316Z,0.80
2023-01-31T06:36:50.867Z,0.70
2023-01-31T06:39:19.327Z,0.77
2023-01-31T06:41:49.595Z,1.20
2023-01-31T06:44:19.437Z,1.20
2023-01-31T06:46:47.907Z,0.70
2023-01-31T06:49:16.487Z,0.30
2023-01-31T06:51:45.077Z,0.70
2023-01-31T06:54:13.560Z,0.30
2023-01-31T06:56:42.133Z,0.40
2023-01-31T06:59:12.261Z,0.67
2023-01-31T07:01:40.771Z,0.50
2023-01-31T07:04:09.336Z,0.50
2023-01-31T07:06:38.010Z,0.70
2023-01-31T07:09:07.396Z,0.67
2023-01-31T07:11:35.897Z,0.63
2023-01-31T07:14:04.549Z,0.50
2023-01-31T07:16:34.423Z,0.47
2023-01-31T07:19:02.889Z,0.50
2023-01-31T07:21:31.533Z,0.97
2023-01-31T07:24:00.090Z,0.90
2023-01-31T07:26:28.661Z,0.50
2023-01-31T07:28:57.499Z,0.20
2023-01-31T07:31:26.014Z,0.30
2023-01-31T07:33:56.171Z,0.30
2023-01-31T07:36:26.838Z,0.40
2023-01-31T07:38:56.406Z,0.17
2023-01-31T07:41:25.171Z,0.77
2023-01-31T07:43:56.066Z,0.70
2023-01-31T07:46:24.553Z,0.60
2023-01-31T07:48:53.043Z,0.40
2023-01-31T07:51:23.305Z,0.50
2023-01-31T07:53:51.798Z,0.63
2023-01-31T07:56:21.193Z,0.60
2023-01-31T07:58:50.661Z,0.53
2023-01-31T08:01:38.022Z,0.80
2023-01-31T08:04:20.090Z,0.50
2023-01-31T08:06:51.166Z,0.43
2023-01-31T08:09:19.781Z,0.60
2023-01-31T08:11:48.271Z,0.90
2023-01-31T08:14:17.003Z,0.60
2023-01-31T08:16:45.694Z,1.03
2023-01-31T08:19:14.196Z,0.97
2023-01-31T08:21:42.784Z,1.27
2023-01-31T08:24:13.021Z,0.47
2023-01-31T08:26:41.518Z,0.83
2023-01-31T08:29:10.487Z,0.63
2023-01-31T08:31:39.234Z,0.70
2023-01-31T08:34:09.082Z,0.50
2023-01-31T08:36:37.744Z,0.50
2023-01-31T08:39:06.757Z,0.80
2023-01-31T08:41:37.311Z,0.30
2023-01-31T08:44:06.065Z,0.40
2023-01-31T08:46:35.547Z,0.50
2023-01-31T08:49:04.908Z,0.40
2023-01-31T08:51:33.683Z,1.00
2023-01-31T08:54:02.163Z,0.83
2023-01-31T08:56:31.152Z,0.93
2023-01-31T08:59:01.314Z,0.63
2023-01-31T09:01:30.333Z,0.83
2023-01-31T09:03:59.046Z,0.70
2023-01-31T09:06:29.144Z,0.43
2023-01-31T09:08:58.574Z,0.40
2023-01-31T09:11:30.569Z,0.40
2023-01-31T09:13:59.227Z,0.40
2023-01-31T09:16:29.295Z,1.17
2023-01-31T09:18:58.359Z,2.63
2023-01-31T09:21:27.857Z,2.10
2023-01-31T09:23:57.571Z,1.23
2023-01-31T09:26:26.177Z,1.10
2023-01-31T09:28:55.025Z,1.00
2023-01-31T09:31:23.693Z,0.50
2023-01-31T09:33:54.873Z,0.40
2023-01-31T09:36:24.885Z,0.37
2023-01-31T09:38:56.229Z,0.40
2023-01-31T09:41:27.149Z,0.50
2023-01-31T09:43:57.543Z,0.73
2023-01-31T09:46:27.347Z,0.30
2023-01-31T09:48:58.031Z,0.20
2023-01-31T09:51:26.865Z,0.53
2023-01-31T09:53:56.950Z,0.50
2023-01-31T09:56:31.033Z,0.30
2023-01-31T09:59:03.579Z,0.50
2023-01-31T10:01:34.978Z,0.37
2023-01-31T10:04:22.269Z,0.40
2023-01-31T10:06:54.373Z,0.63
2023-01-31T10:09:25.893Z,0.40
2023-01-31T10:11:56.210Z,0.40
2023-01-31T10:14:28.270Z,0.73
2023-01-31T10:17:00.334Z,0.30
2023-01-31T10:19:32.897Z,0.33
2023-01-31T10:22:06.470Z,0.33
2023-01-31T10:24:37.290Z,0.30
2023-01-31T10:27:07.812Z,0.13
2023-01-31T10:29:38.761Z,0.30
2023-01-31T10:32:13.011Z,0.30
2023-01-31T10:34:45.959Z,0.50
2023-01-31T10:37:16.099Z,0.30
2023-01-31T10:39:47.094Z,0.40
2023-01-31T10:42:22.106Z,0.20
2023-01-31T10:44:53.821Z,0.20
2023-01-31T10:47:24.095Z,0.60
2023-01-31T10:49:53.957Z,0.37
2023-01-31T10:52:35.049Z,0.33
2023-01-31T10:55:11.571Z,0.40
2023-01-31T10:57:40.747Z,0.40
2023-01-31T11:00:14.830Z,0.30
2023-01-31T11:02:43.449Z,0.30
2023-01-31T11:05:17.526Z,0.33
2023-01-31T11:07:46.141Z,0.27
2023-01-31T11:10:24.872Z,0.50
2023-01-31T11:12:57.685Z,0.40
2023-01-31T11:15:28.511Z,0.60
2023-01-31T11:18:00.606Z,0.40
2023-01-31T11:20:31.767Z,0.37
2023-01-31T11:23:01.417Z,0.30
2023-01-31T11:25:31.328Z,0.30
2023-01-31T11:28:01.204Z,0.43
2023-01-31T11:30:31.641Z,0.40
2023-01-31T11:33:00.185Z,0.30
2023-01-31T11:35:31.119Z,0.30
2023-01-31T11:38:00.750Z,0.33
2023-01-31T11:40:30.963Z,0.40
2023-01-31T11:43:00.023Z,0.50
2023-01-31T11:45:31.667Z,0.40
2023-01-31T11:48:01.695Z,0.40
2023-01-31T11:50:36.063Z,0.30
2023-01-31T11:53:05.904Z,0.20
2023-01-31T11:55:38.528Z,0.40
2023-01-31T11:58:11.200Z,0.30
2023-01-31T12:00:40.023Z,0.47
2023-01-31T12:03:09.953Z,0.20
2023-01-31T12:05:41.609Z,0.37
2023-01-31T12:08:30.118Z,0.50
2023-01-31T12:10:59.108Z,0.43
2023-01-31T12:13:29.049Z,0.40
2023-01-31T12:15:59.441Z,0.47
2023-01-31T12:18:38.379Z,0.40
2023-01-31T12:21:15.610Z,0.30
2023-01-31T12:23:52.627Z,0.40
2023-01-31T12:26:24.129Z,0.33
2023-01-31T12:29:00.668Z,0.23
2023-01-31T12:31:46.833Z,0.30
2023-01-31T12:34:24.639Z,0.37
2023-01-31T12:36:59.701Z,0.33
2023-01-31T12:39:36.291Z,0.33
2023-01-31T12:42:17.143Z,0.50
2023-01-31T12:44:47.441Z,0.30
2023-01-31T12:47:24.650Z,0.50
2023-01-31T12:49:58.584Z,0.50
2023-01-31T12:52:34.641Z,0.47
2023-01-31T12:55:08.957Z,0.50
2023-01-31T12:57:39.723Z,0.37
2023-01-31T13:00:16.154Z,0.40
2023-01-31T13:02:47.740Z,0.33
2023-01-31T13:05:27.109Z,0.30
2023-01-31T13:08:00.192Z,0.33
2023-01-31T13:10:34.531Z,0.40
2023-01-31T13:13:04.461Z,0.40
2023-01-31T13:15:34.559Z,0.53
2023-01-31T13:18:04.320Z,0.33
2023-01-31T13:20:35.686Z,0.40
2023-01-31T13:23:08.470Z,0.40
2023-01-31T13:25:39.738Z,0.53
2023-01-31T13:28:14.234Z,0.53
2023-01-31T13:30:44.267Z,0.40
2023-01-31T13:33:19.862Z,0.53
2023-01-31T13:35:59.025Z,0.60
2023-01-31T13:38:29.852Z,0.30
2023-01-31T13:40:59.205Z,0.60
2023-01-31T13:43:27.736Z,0.90
2023-01-31T13:45:58.419Z,0.30
2023-01-31T13:48:28.646Z,0.63
2023-01-31T13:51:00.345Z,0.40
2023-01-31T13:53:32.887Z,0.40
2023-01-31T13:56:03.071Z,0.30
2023-01-31T13:58:35.265Z,0.43
2023-01-31T14:01:08.312Z,0.37
2023-01-31T14:03:51.601Z,0.50
2023-01-31T14:06:20.258Z,0.80
2023-01-31T14:09:04.830Z,0.40
2023-01-31T14:11:37.508Z,0.50
2023-01-31T14:14:22.549Z,0.30
2023-01-31T14:16:53.117Z,0.47
2023-01-31T14:19:56.224Z,0.47
2023-01-31T14:22:27.016Z,0.50
2023-01-31T14:25:01.059Z,0.30
2023-01-31T14:27:31.554Z,0.80
2023-01-31T14:30:02.889Z,0.40
2023-01-31T14:32:33.016Z,0.20
2023-01-31T14:35:04.279Z,0.40
2023-01-31T14:37:38.465Z,0.50
2023-01-31T14:40:14.379Z,0.40
2023-01-31T14:43:00.580Z,0.30
2023-01-31T14:45:38.162Z,0.40
2023-01-31T14:48:16.351Z,0.20
2023-01-31T14:50:53.983Z,0.50
2023-01-31T14:53:35.607Z,0.40
2023-01-31T14:56:24.290Z,0.50
2023-01-31T14:58:52.943Z,0.40
2023-01-31T15:01:24.082Z,0.27
2023-01-31T15:03:54.768Z,0.47
2023-01-31T15:06:25.811Z,0.50
2023-01-31T15:09:19.952Z,0.40
2023-01-31T15:11:50.481Z,0.43
2023-01-31T15:14:34.179Z,0.30
2023-01-31T15:17:05.746Z,0.30
2023-01-31T15:19:36.993Z,0.40
2023-01-31T15:22:07.275Z,0.30
2023-01-31T15:24:36.451Z,0.30
2023-01-31T15:27:10.018Z,0.40
2023-01-31T15:29:49.183Z,0.40
2023-01-31T15:32:21.489Z,0.30
2023-01-31T15:34:52.311Z,0.27
2023-01-31T15:37:23.594Z,0.37
2023-01-31T15:39:55.256Z,0.53
2023-01-31T15:42:26.734Z,0.40
2023-01-31T15:45:10.031Z,0.50
2023-01-31T15:47:38.744Z,0.10
2023-01-31T15:50:15.409Z,0.60
2023-01-31T15:52:44.211Z,0.57
2023-01-31T15:55:14.367Z,0.70
2023-01-31T15:57:46.538Z,0.60
2023-01-31T16:00:22.101Z,0.60
2023-01-31T16:02:50.877Z,0.30
2023-01-31T16:05:22.246Z,0.50
2023-01-31T16:07:51.123Z,0.40
2023-01-31T16:10:20.091Z,0.47
2023-01-31T16:12:51.820Z,0.37
2023-01-31T16:15:22.872Z,0.43
2023-01-31T16:17:52.187Z,0.70
2023-01-31T16:20:50.673Z,0.60
2023-01-31T16:23:25.295Z,0.50
2023-01-31T16:25:55.552Z,0.30
2023-01-31T16:28:25.791Z,0.47
2023-01-31T16:30:54.353Z,0.43
2023-01-31T16:33:25.292Z,0.60
2023-01-31T16:36:13.660Z,0.80
2023-01-31T16:38:44.727Z,0.30
2023-01-31T16:41:14.609Z,0.40
2023-01-31T16:43:45.335Z,0.50
2023-01-31T16:46:21.041Z,1.27
2023-01-31T16:49:03.306Z,0.93
2023-01-31T16:51:42.911Z,0.70
2023-01-31T16:54:18.840Z,0.40
2023-01-31T16:56:47.691Z,0.70
2023-01-31T16:59:40.461Z,0.83
2023-01-31T17:02:15.675Z,0.40
2023-01-31T17:04:45.807Z,0.30
2023-01-31T17:07:18.210Z,0.90
2023-01-31T17:09:47.375Z,3.07
2023-01-31T17:12:23.500Z,2.40
2023-01-31T17:14:57.435Z,1.90
2023-01-31T17:17:28.334Z,0.77
2023-01-31T17:19:56.832Z,0.80
2023-01-31T17:22:25.393Z,0.47
2023-01-31T17:24:54.099Z,0.30
2023-01-31T17:27:23.111Z,0.17
2023-01-31T17:29:51.786Z,0.63
2023-01-31T17:32:21.034Z,0.40
2023-01-31T17:34:51.462Z,0.77
2023-01-31T17:37:26.739Z,0.60
2023-01-31T17:39:59.790Z,0.43
2023-01-31T17:42:28.450Z,0.50
2023-01-31T17:44:57.008Z,0.70
2023-01-31T17:47:27.125Z,0.70
2023-01-31T17:49:57.499Z,0.73
2023-01-31T17:52:26.173Z,0.80
2023-01-31T17:54:54.691Z,0.83
2023-01-31T17:57:23.272Z,1.20
2023-01-31T17:59:52.307Z,1.00
2023-01-31T18:02:20.788Z,1.10
2023-01-31T18:04:49.403Z,1.13
2023-01-31T18:07:19.392Z,1.00
2023-01-31T18:09:47.881Z,1.17
2023-01-31T18:12:16.776Z,2.37
2023-01-31T18:14:45.454Z,3.43
2023-01-31T18:17:14.143Z,3.20
2023-01-31T18:19:42.684Z,1.37
2023-01-31T18:22:11.279Z,1.20
2023-01-31T18:24:41.206Z,1.10
2023-01-31T18:27:09.831Z,0.70
2023-01-31T18:29:38.373Z,0.60
2023-01-31T18:32:09.354Z,0.90
2023-01-31T18:34:38.423Z,1.00
2023-01-31T18:37:13.016Z,1.20
2023-01-31T18:39:42.950Z,1.10
2023-01-31T18:42:11.476Z,1.07
2023-01-31T18:44:39.943Z,1.20
2023-01-31T18:47:08.652Z,0.90
2023-01-31T18:49:37.266Z,0.70
2023-01-31T18:52:07.023Z,0.60
2023-01-31T18:54:35.589Z,1.10
2023-01-31T18:57:05.689Z,0.70
2023-01-31T18:59:35.115Z,0.80
2023-01-31T19:02:03.950Z,0.80
2023-01-31T19:04:32.599Z,0.67
2023-01-31T19:07:01.711Z,0.97
2023-01-31T19:09:30.254Z,0.87
2023-01-31T19:11:58.865Z,0.70
2023-01-31T19:14:28.739Z,0.70
2023-01-31T19:16:58.082Z,0.80
2023-01-31T19:19:26.762Z,0.70
2023-01-31T19:21:56.134Z,0.80
2023-01-31T19:24:24.804Z,0.70
2023-01-31T19:26:53.492Z,0.60
2023-01-31T19:29:21.982Z,0.70
2023-01-31T19:31:51.995Z,0.83
2023-01-31T19:34:20.552Z,1.33
2023-01-31T19:36:49.183Z,0.87
2023-01-31T19:39:17.831Z,1.10
2023-01-31T19:41:46.442Z,1.20
2023-01-31T19:44:14.937Z,1.23
2023-01-31T19:46:46.537Z,0.60
2023-01-31T19:49:16.674Z,0.87
2023-01-31T19:51:45.136Z,0.83
2023-01-31T19:54:15.529Z,0.70
2023-01-31T19:56:44.119Z,0.90
2023-01-31T19:59:12.705Z,0.80
2023-01-31T20:01:41.446Z,0.50
2023-01-31T20:04:10.132Z,1.10
2023-01-31T20:06:40.001Z,0.80
2023-01-31T20:09:08.572Z,0.60
2023-01-31T20:11:37.253Z,0.87
2023-01-31T20:14:06.611Z,1.10
2023-01-31T20:16:35.632Z,1.53
2023-01-31T20:19:06.637Z,1.73
2023-01-31T20:21:35.327Z,2.70
2023-01-31T20:24:05.376Z,2.53
2023-01-31T20:26:35.413Z,5.20
2023-01-31T20:29:03.954Z,2.80
2023-01-31T20:31:32.553Z,2.67
2023-01-31T20:34:01.099Z,2.10
2023-01-31T20:36:29.570Z,3.87
2023-01-31T20:38:58.170Z,2.60
2023-01-31T20:41:28.287Z,2.50
2023-01-31T20:43:57.931Z,1.60
2023-01-31T20:46:26.633Z,1.33
2023-01-31T20:48:55.151Z,2.10
2023-01-31T20:51:23.689Z,1.70
2023-01-31T20:53:52.553Z,1.10
2023-01-31T20:56:21.029Z,0.80
2023-01-31T20:58:50.887Z,0.90
2023-01-31T21:01:19.629Z,1.00
2023-01-31T21:03:48.123Z,1.00
2023-01-31T21:06:16.604Z,0.80
2023-01-31T21:08:47.786Z,1.00
2023-01-31T21:11:16.926Z,0.80
2023-01-31T21:13:45.572Z,0.80
2023-01-31T21:16:16.904Z,0.70
2023-01-31T21:18:45.741Z,0.60
2023-01-31T21:21:15.388Z,0.80
2023-01-31T21:23:43.982Z,0.90
2023-01-31T21:26:13.057Z,0.90
2023-01-31T21:28:43.689Z,0.80
2023-01-31T21:31:17.083Z,0.80
2023-01-31T21:33:47.995Z,0.80
2023-01-31T21:36:17.973Z,1.00
2023-01-31T21:38:46.986Z,1.00
2023-01-31T21:41:33.391Z,1.00
2023-01-31T21:44:01.927Z,0.90
2023-01-31T21:46:30.619Z,1.20
2023-01-31T21:49:01.121Z,0.90
2023-01-31T21:51:29.701Z,0.90
2023-01-31T21:53:58.200Z,0.93
2023-01-31T21:56:27.952Z,1.17
2023-01-31T21:58:56.923Z,0.93
2023-01-31T22:01:26.390Z,1.00
2023-01-31T22:03:56.121Z,1.40
2023-01-31T22:06:27.523Z,1.30
2023-01-31T22:08:58.116Z,1.20
2023-01-31T22:11:28.588Z,1.00
2023-01-31T22:13:57.096Z,1.40
2023-01-31T22:16:25.904Z,1.30
2023-01-31T22:18:54.512Z,1.60
2023-01-31T22:21:24.610Z,1.50
2023-01-31T22:23:55.098Z,1.40
2023-01-31T22:26:24.417Z,1.60
2023-01-31T22:28:53.289Z,1.50
2023-01-31T22:31:22.360Z,1.60
2023-01-31T22:33:50.887Z,1.70
2023-01-31T22:36:19.595Z,1.50
2023-01-31T22:38:48.285Z,1.83
2023-01-31T22:41:20.189Z,1.70
2023-01-31T22:43:50.023Z,1.53
2023-01-31T22:46:20.113Z,1.70
2023-01-31T22:48:49.536Z,1.60
2023-01-31T22:51:19.447Z,1.93
2023-01-31T22:53:48.145Z,1.43
2023-01-31T22:56:18.732Z,1.80
2023-01-31T22:58:47.605Z,1.80
2023-01-31T23:01:17.065Z,1.60
2023-01-31T23:03:45.832Z,1.63
2023-01-31T23:06:15.214Z,1.50
2023-01-31T23:08:44.167Z,1.60
2023-01-31T23:11:13.635Z,1.50
2023-01-31T23:13:43.883Z,1.37
2023-01-31T23:16:16.557Z,1.60
2023-01-31T23:18:45.396Z,1.40
2023-01-31T23:21:15.450Z,1.57
2023-01-31T23:23:44.240Z,1.40
2023-01-31T23:26:13.515Z,1.70
2023-01-31T23:28:43.387Z,1.57
2023-01-31T23:31:11.950Z,1.80
2023-01-31T23:33:40.843Z,1.60
2023-01-31T23:36:09.615Z,1.43
2023-01-31T23:38:38.183Z,1.40
2023-01-31T23:41:07.051Z,1.40
2023-01-31T23:43:35.520Z,1.30
2023-01-31T23:46:05.490Z,1.50
2023-01-31T23:48:35.872Z,1.40
2023-01-31T23:51:04.605Z,1.30
2023-01-31T23:53:33.303Z,1.50
2023-01-31T23:56:01.854Z,1.10
2023-01-31T23:58:30.334Z,1.27
